sensor_id;sensor_type;location;lat;lon;timestamp;P1;durP1;ratioP1;P2;durP2;ratioP2
54983;SDS011;40884;53.562;9.940;2022-07-23T00:00:47;3.37;;;0.87;;
54983;SDS011;40884;53.562;9.940;2022-07-23T00:01:47;2.73;;;1.20;;
54983;SDS011;40884;53.562;9.940;2022-07-23T00:02:47;5.67;;;1.20;;
54983;SDS011;40884;53.562;9.940;2022-07-23T00:03:47;2.73;;;0.90;;
54983;SDS011;40884;53.562;9.940;2022-07-23T00:04:47;3.00;;;0.90;;
54983;SDS011;40884;53.562;9.940;2022-07-23T00:05:47;4.00;;;1.07;;
54983;SDS011;40884;53.562;9.940;2022-07-23T00:06:47;2.53;;;1.03;;
54983;SDS011;40884;53.562;9.940;2022-07-23T00:07:48;2.93;;;0.80;;
54983;SDS011;40884;53.562;9.940;2022-07-23T00:08:48;2.23;;;1.00;;
54983;SDS011;40884;53.562;9.940;2022-07-23T00:09:48;2.60;;;0.97;;
54983;SDS011;40884;53.562;9.940;2022-07-23T00:10:48;4.33;;;0.83;;
54983;SDS011;40884;53.562;9.940;2022-07-23T00:11:48;2.57;;;1.00;;
54983;SDS011;40884;53.562;9.940;2022-07-23T00:12:48;2.20;;;0.80;;
54983;SDS011;40884;53.562;9.940;2022-07-23T00:13:49;2.77;;;0.90;;
54983;SDS011;40884;53.562;9.940;2022-07-23T00:14:49;3.97;;;1.17;;
54983;SDS011;40884;53.562;9.940;2022-07-23T00:15:49;2.73;;;0.90;;
54983;SDS011;40884;53.562;9.940;2022-07-23T00:16:49;3.37;;;1.37;;
54983;SDS011;40884;53.562;9.940;2022-07-23T00:17:49;3.30;;;1.13;;
54983;SDS011;40884;53.562;9.940;2022-07-23T00:18:50;4.77;;;1.30;;
54983;SDS011;40884;53.562;9.940;2022-07-23T00:19:50;2.73;;;1.10;;
54983;SDS011;40884;53.562;9.940;2022-07-23T00:20:50;2.70;;;1.20;;
54983;SDS011;40884;53.562;9.940;2022-07-23T00:21:50;2.83;;;1.20;;
54983;SDS011;40884;53.562;9.940;2022-07-23T00:22:51;3.73;;;1.23;;
54983;SDS011;40884;53.562;9.940;2022-07-23T00:23:51;5.20;;;1.50;;
54983;SDS011;40884;53.562;9.940;2022-07-23T00:24:51;2.57;;;1.20;;
54983;SDS011;40884;53.562;9.940;2022-07-23T00:25:52;4.90;;;1.20;;
54983;SDS011;40884;53.562;9.940;2022-07-23T00:26:52;2.53;;;1.17;;
54983;SDS011;40884;53.562;9.940;2022-07-23T00:27:52;2.03;;;1.10;;
54983;SDS011;40884;53.562;9.940;2022-07-23T00:28:52;2.87;;;1.10;;
54983;SDS011;40884;53.562;9.940;2022-07-23T00:29:52;3.07;;;1.03;;
54983;SDS011;40884;53.562;9.940;2022-07-23T00:30:52;4.07;;;1.33;;
54983;SDS011;40884;53.562;9.940;2022-07-23T00:31:53;3.90;;;1.20;;
54983;SDS011;40884;53.562;9.940;2022-07-23T00:32:57;2.43;;;1.03;;
54983;SDS011;40884;53.562;9.940;2022-07-23T00:33:57;3.43;;;1.37;;
54983;SDS011;40884;53.562;9.940;2022-07-23T00:34:57;2.73;;;1.37;;
54983;SDS011;40884;53.562;9.940;2022-07-23T00:35:57;4.23;;;1.10;;
54983;SDS011;40884;53.562;9.940;2022-07-23T00:36:58;3.40;;;1.20;;
54983;SDS011;40884;53.562;9.940;2022-07-23T00:37:58;3.27;;;1.00;;
54983;SDS011;40884;53.562;9.940;2022-07-23T00:38:58;3.77;;;1.27;;
54983;SDS011;40884;53.562;9.940;2022-07-23T00:39:58;4.60;;;1.07;;
54983;SDS011;40884;53.562;9.940;2022-07-23T00:40:59;3.30;;;1.40;;
54983;SDS011;40884;53.562;9.940;2022-07-23T00:41:59;2.80;;;1.00;;
54983;SDS011;40884;53.562;9.940;2022-07-23T00:42:59;3.53;;;1.40;;
54983;SDS011;40884;53.562;9.940;2022-07-23T00:44:15;3.73;;;1.53;;
54983;SDS011;40884;53.562;9.940;2022-07-23T00:45:16;3.87;;;1.20;;
54983;SDS011;40884;53.562;9.940;2022-07-23T00:46:19;4.20;;;1.50;;
54983;SDS011;40884;53.562;9.940;2022-07-23T00:47:19;3.03;;;1.20;;
54983;SDS011;40884;53.562;9.940;2022-07-23T00:48:19;2.33;;;1.30;;
54983;SDS011;40884;53.562;9.940;2022-07-23T00:49:20;4.27;;;1.30;;
54983;SDS011;40884;53.562;9.940;2022-07-23T00:50:21;3.63;;;1.10;;
54983;SDS011;40884;53.562;9.940;2022-07-23T00:51:21;4.47;;;1.10;;
54983;SDS011;40884;53.562;9.940;2022-07-23T00:52:22;3.10;;;1.17;;
54983;SDS011;40884;53.562;9.940;2022-07-23T00:53:22;4.73;;;1.20;;
54983;SDS011;40884;53.562;9.940;2022-07-23T00:54:24;3.30;;;1.10;;
54983;SDS011;40884;53.562;9.940;2022-07-23T00:55:24;2.40;;;1.00;;
54983;SDS011;40884;53.562;9.940;2022-07-23T00:56:25;4.60;;;1.00;;
54983;SDS011;40884;53.562;9.940;2022-07-23T00:57:25;3.60;;;1.10;;
54983;SDS011;40884;53.562;9.940;2022-07-23T00:58:26;4.10;;;1.13;;
54983;SDS011;40884;53.562;9.940;2022-07-23T00:59:27;3.30;;;1.10;;
54983;SDS011;40884;53.562;9.940;2022-07-23T01:00:27;3.27;;;1.10;;
54983;SDS011;40884;53.562;9.940;2022-07-23T01:01:27;6.63;;;1.23;;
54983;SDS011;40884;53.562;9.940;2022-07-23T01:02:27;3.07;;;1.10;;
54983;SDS011;40884;53.562;9.940;2022-07-23T01:03:28;3.70;;;1.10;;
54983;SDS011;40884;53.562;9.940;2022-07-23T01:04:28;2.57;;;1.00;;
54983;SDS011;40884;53.562;9.940;2022-07-23T01:05:28;3.83;;;1.13;;
54983;SDS011;40884;53.562;9.940;2022-07-23T01:06:28;3.90;;;1.17;;
54983;SDS011;40884;53.562;9.940;2022-07-23T01:07:29;4.63;;;1.30;;
54983;SDS011;40884;53.562;9.940;2022-07-23T01:08:29;3.07;;;1.10;;
54983;SDS011;40884;53.562;9.940;2022-07-23T01:09:30;2.70;;;1.10;;
54983;SDS011;40884;53.562;9.940;2022-07-23T01:10:31;3.43;;;1.00;;
54983;SDS011;40884;53.562;9.940;2022-07-23T01:11:32;2.97;;;1.20;;
54983;SDS011;40884;53.562;9.940;2022-07-23T01:12:32;2.93;;;1.20;;
54983;SDS011;40884;53.562;9.940;2022-07-23T01:13:32;2.43;;;1.00;;
54983;SDS011;40884;53.562;9.940;2022-07-23T01:14:33;3.87;;;1.20;;
54983;SDS011;40884;53.562;9.940;2022-07-23T01:15:34;3.57;;;1.10;;
54983;SDS011;40884;53.562;9.940;2022-07-23T01:16:35;3.03;;;1.10;;
54983;SDS011;40884;53.562;9.940;2022-07-23T01:17:35;3.90;;;1.27;;
54983;SDS011;40884;53.562;9.940;2022-07-23T01:18:35;2.30;;;1.03;;
54983;SDS011;40884;53.562;9.940;2022-07-23T01:19:35;3.50;;;1.30;;
54983;SDS011;40884;53.562;9.940;2022-07-23T01:20:35;3.97;;;1.17;;
54983;SDS011;40884;53.562;9.940;2022-07-23T01:21:36;3.03;;;1.00;;
54983;SDS011;40884;53.562;9.940;2022-07-23T01:22:37;3.87;;;1.00;;
54983;SDS011;40884;53.562;9.940;2022-07-23T01:23:37;3.33;;;1.13;;
54983;SDS011;40884;53.562;9.940;2022-07-23T01:24:37;4.23;;;1.00;;
54983;SDS011;40884;53.562;9.940;2022-07-23T01:25:47;3.77;;;1.00;;
54983;SDS011;40884;53.562;9.940;2022-07-23T01:26:48;3.80;;;1.10;;
54983;SDS011;40884;53.562;9.940;2022-07-23T01:27:48;2.10;;;0.90;;
54983;SDS011;40884;53.562;9.940;2022-07-23T01:28:49;2.23;;;0.80;;
54983;SDS011;40884;53.562;9.940;2022-07-23T01:29:49;2.70;;;0.93;;
54983;SDS011;40884;53.562;9.940;2022-07-23T01:30:52;2.37;;;1.00;;
54983;SDS011;40884;53.562;9.940;2022-07-23T01:31:53;2.93;;;1.07;;
54983;SDS011;40884;53.562;9.940;2022-07-23T01:32:53;2.67;;;0.97;;
54983;SDS011;40884;53.562;9.940;2022-07-23T01:33:54;2.10;;;1.00;;
54983;SDS011;40884;53.562;9.940;2022-07-23T01:34:54;2.20;;;0.93;;
54983;SDS011;40884;53.562;9.940;2022-07-23T01:35:54;2.00;;;0.70;;
54983;SDS011;40884;53.562;9.940;2022-07-23T01:36:58;1.90;;;0.70;;
54983;SDS011;40884;53.562;9.940;2022-07-23T01:37:58;2.93;;;1.03;;
54983;SDS011;40884;53.562;9.940;2022-07-23T01:38:58;2.03;;;0.80;;
54983;SDS011;40884;53.562;9.940;2022-07-23T01:39:58;1.23;;;0.90;;
54983;SDS011;40884;53.562;9.940;2022-07-23T01:40:59;2.70;;;1.00;;
54983;SDS011;40884;53.562;9.940;2022-07-23T01:42:04;2.37;;;1.00;;
54983;SDS011;40884;53.562;9.940;2022-07-23T01:43:05;1.97;;;0.70;;
54983;SDS011;40884;53.562;9.940;2022-07-23T01:44:08;4.67;;;1.00;;
54983;SDS011;40884;53.562;9.940;2022-07-23T01:45:09;1.90;;;0.80;;
54983;SDS011;40884;53.562;9.940;2022-07-23T01:46:10;2.43;;;1.07;;
54983;SDS011;40884;53.562;9.940;2022-07-23T01:47:15;2.93;;;0.87;;
54983;SDS011;40884;53.562;9.940;2022-07-23T01:48:16;3.80;;;0.90;;
54983;SDS011;40884;53.562;9.940;2022-07-23T01:49:29;3.20;;;0.90;;
54983;SDS011;40884;53.562;9.940;2022-07-23T01:51:04;3.17;;;0.90;;
54983;SDS011;40884;53.562;9.940;2022-07-23T01:52:14;2.07;;;0.80;;
54983;SDS011;40884;53.562;9.940;2022-07-23T01:53:17;3.07;;;0.87;;
54983;SDS011;40884;53.562;9.940;2022-07-23T01:54:18;3.10;;;1.00;;
54983;SDS011;40884;53.562;9.940;2022-07-23T01:55:18;3.43;;;0.70;;
54983;SDS011;40884;53.562;9.940;2022-07-23T01:56:18;4.20;;;0.90;;
54983;SDS011;40884;53.562;9.940;2022-07-23T01:57:18;3.47;;;1.00;;
54983;SDS011;40884;53.562;9.940;2022-07-23T01:58:19;2.23;;;0.80;;
54983;SDS011;40884;53.562;9.940;2022-07-23T01:59:19;3.13;;;1.10;;
54983;SDS011;40884;53.562;9.940;2022-07-23T02:00:19;2.67;;;0.80;;
54983;SDS011;40884;53.562;9.940;2022-07-23T02:01:22;2.13;;;1.03;;
54983;SDS011;40884;53.562;9.940;2022-07-23T02:02:22;2.07;;;0.93;;
54983;SDS011;40884;53.562;9.940;2022-07-23T02:03:23;3.70;;;1.10;;
54983;SDS011;40884;53.562;9.940;2022-07-23T02:04:23;4.50;;;1.20;;
54983;SDS011;40884;53.562;9.940;2022-07-23T02:05:24;3.43;;;0.80;;
54983;SDS011;40884;53.562;9.940;2022-07-23T02:06:24;4.37;;;1.10;;
54983;SDS011;40884;53.562;9.940;2022-07-23T02:07:25;2.07;;;0.80;;
54983;SDS011;40884;53.562;9.940;2022-07-23T02:08:25;3.17;;;1.00;;
54983;SDS011;40884;53.562;9.940;2022-07-23T02:09:25;2.23;;;0.90;;
54983;SDS011;40884;53.562;9.940;2022-07-23T02:10:26;2.37;;;0.87;;
54983;SDS011;40884;53.562;9.940;2022-07-23T02:11:26;2.23;;;0.90;;
54983;SDS011;40884;53.562;9.940;2022-07-23T02:12:27;2.00;;;0.80;;
54983;SDS011;40884;53.562;9.940;2022-07-23T02:13:27;1.73;;;0.90;;
54983;SDS011;40884;53.562;9.940;2022-07-23T02:14:28;2.87;;;1.10;;
54983;SDS011;40884;53.562;9.940;2022-07-23T02:15:28;5.50;;;1.20;;
54983;SDS011;40884;53.562;9.940;2022-07-23T02:16:28;4.13;;;1.20;;
54983;SDS011;40884;53.562;9.940;2022-07-23T02:17:33;3.20;;;1.10;;
54983;SDS011;40884;53.562;9.940;2022-07-23T02:18:35;2.67;;;1.03;;
54983;SDS011;40884;53.562;9.940;2022-07-23T02:19:35;4.10;;;1.03;;
54983;SDS011;40884;53.562;9.940;2022-07-23T02:20:35;4.23;;;1.17;;
54983;SDS011;40884;53.562;9.940;2022-07-23T02:21:36;3.53;;;1.10;;
54983;SDS011;40884;53.562;9.940;2022-07-23T02:22:36;3.57;;;0.97;;
54983;SDS011;40884;53.562;9.940;2022-07-23T02:23:36;1.57;;;1.00;;
54983;SDS011;40884;53.562;9.940;2022-07-23T02:24:36;2.27;;;0.87;;
54983;SDS011;40884;53.562;9.940;2022-07-23T02:25:36;4.57;;;1.10;;
54983;SDS011;40884;53.562;9.940;2022-07-23T02:26:36;2.43;;;1.03;;
54983;SDS011;40884;53.562;9.940;2022-07-23T02:27:39;4.53;;;0.90;;
54983;SDS011;40884;53.562;9.940;2022-07-23T02:28:40;2.63;;;0.93;;
54983;SDS011;40884;53.562;9.940;2022-07-23T02:29:40;2.63;;;0.97;;
54983;SDS011;40884;53.562;9.940;2022-07-23T02:30:41;4.07;;;1.03;;
54983;SDS011;40884;53.562;9.940;2022-07-23T02:31:41;1.93;;;0.80;;
54983;SDS011;40884;53.562;9.940;2022-07-23T02:32:42;4.57;;;1.20;;
54983;SDS011;40884;53.562;9.940;2022-07-23T02:33:44;3.30;;;1.33;;
54983;SDS011;40884;53.562;9.940;2022-07-23T02:34:44;1.80;;;0.90;;
54983;SDS011;40884;53.562;9.940;2022-07-23T02:35:44;3.80;;;1.03;;
54983;SDS011;40884;53.562;9.940;2022-07-23T02:36:45;1.77;;;0.80;;
54983;SDS011;40884;53.562;9.940;2022-07-23T02:37:45;3.23;;;1.20;;
54983;SDS011;40884;53.562;9.940;2022-07-23T02:38:45;2.73;;;1.07;;
54983;SDS011;40884;53.562;9.940;2022-07-23T02:39:45;1.40;;;0.80;;
54983;SDS011;40884;53.562;9.940;2022-07-23T02:40:46;3.00;;;1.10;;
54983;SDS011;40884;53.562;9.940;2022-07-23T02:41:47;3.07;;;1.10;;
54983;SDS011;40884;53.562;9.940;2022-07-23T02:42:47;2.63;;;1.03;;
54983;SDS011;40884;53.562;9.940;2022-07-23T02:43:47;4.03;;;1.10;;
54983;SDS011;40884;53.562;9.940;2022-07-23T02:44:48;2.23;;;1.07;;
54983;SDS011;40884;53.562;9.940;2022-07-23T02:45:49;2.83;;;1.17;;
54983;SDS011;40884;53.562;9.940;2022-07-23T02:46:49;3.33;;;1.13;;
54983;SDS011;40884;53.562;9.940;2022-07-23T02:47:50;4.07;;;1.27;;
54983;SDS011;40884;53.562;9.940;2022-07-23T02:48:51;1.70;;;1.03;;
54983;SDS011;40884;53.562;9.940;2022-07-23T02:49:51;3.10;;;1.03;;
54983;SDS011;40884;53.562;9.940;2022-07-23T02:50:51;3.37;;;0.93;;
54983;SDS011;40884;53.562;9.940;2022-07-23T02:51:55;2.60;;;1.20;;
54983;SDS011;40884;53.562;9.940;2022-07-23T02:52:56;4.00;;;1.20;;
54983;SDS011;40884;53.562;9.940;2022-07-23T02:53:57;3.87;;;1.30;;
54983;SDS011;40884;53.562;9.940;2022-07-23T02:54:58;3.17;;;0.97;;
54983;SDS011;40884;53.562;9.940;2022-07-23T02:55:59;3.83;;;1.00;;
54983;SDS011;40884;53.562;9.940;2022-07-23T02:56:59;2.87;;;1.13;;
54983;SDS011;40884;53.562;9.940;2022-07-23T02:58:00;2.20;;;1.20;;
54983;SDS011;40884;53.562;9.940;2022-07-23T02:59:01;1.90;;;1.10;;
54983;SDS011;40884;53.562;9.940;2022-07-23T03:00:02;2.70;;;0.93;;
54983;SDS011;40884;53.562;9.940;2022-07-23T03:01:03;2.13;;;1.00;;
54983;SDS011;40884;53.562;9.940;2022-07-23T03:02:03;3.43;;;0.90;;
54983;SDS011;40884;53.562;9.940;2022-07-23T03:03:03;3.20;;;1.17;;
54983;SDS011;40884;53.562;9.940;2022-07-23T03:04:04;2.67;;;1.10;;
54983;SDS011;40884;53.562;9.940;2022-07-23T03:05:04;3.10;;;1.03;;
54983;SDS011;40884;53.562;9.940;2022-07-23T03:06:05;2.23;;;1.00;;
54983;SDS011;40884;53.562;9.940;2022-07-23T03:07:05;3.73;;;1.50;;
54983;SDS011;40884;53.562;9.940;2022-07-23T03:08:06;3.00;;;1.20;;
54983;SDS011;40884;53.562;9.940;2022-07-23T03:09:08;2.87;;;0.97;;
54983;SDS011;40884;53.562;9.940;2022-07-23T03:10:08;2.87;;;1.03;;
54983;SDS011;40884;53.562;9.940;2022-07-23T03:11:09;4.43;;;1.40;;
54983;SDS011;40884;53.562;9.940;2022-07-23T03:12:09;2.33;;;1.03;;
54983;SDS011;40884;53.562;9.940;2022-07-23T03:13:09;3.90;;;0.90;;
54983;SDS011;40884;53.562;9.940;2022-07-23T03:14:09;2.63;;;1.10;;
54983;SDS011;40884;53.562;9.940;2022-07-23T03:15:10;2.70;;;1.10;;
54983;SDS011;40884;53.562;9.940;2022-07-23T03:16:10;3.77;;;1.10;;
54983;SDS011;40884;53.562;9.940;2022-07-23T03:17:11;4.03;;;1.30;;
54983;SDS011;40884;53.562;9.940;2022-07-23T03:18:11;3.17;;;1.07;;
54983;SDS011;40884;53.562;9.940;2022-07-23T03:19:11;3.67;;;1.20;;
54983;SDS011;40884;53.562;9.940;2022-07-23T03:20:11;2.53;;;1.17;;
54983;SDS011;40884;53.562;9.940;2022-07-23T03:21:12;2.40;;;0.87;;
54983;SDS011;40884;53.562;9.940;2022-07-23T03:22:12;3.57;;;1.20;;
54983;SDS011;40884;53.562;9.940;2022-07-23T03:23:13;3.47;;;1.30;;
54983;SDS011;40884;53.562;9.940;2022-07-23T03:24:13;4.90;;;1.27;;
54983;SDS011;40884;53.562;9.940;2022-07-23T03:25:13;2.57;;;1.07;;
54983;SDS011;40884;53.562;9.940;2022-07-23T03:26:13;2.40;;;1.23;;
54983;SDS011;40884;53.562;9.940;2022-07-23T03:27:13;2.70;;;1.03;;
54983;SDS011;40884;53.562;9.940;2022-07-23T03:28:14;1.97;;;1.10;;
54983;SDS011;40884;53.562;9.940;2022-07-23T03:29:14;4.40;;;1.30;;
54983;SDS011;40884;53.562;9.940;2022-07-23T03:30:16;3.27;;;1.10;;
54983;SDS011;40884;53.562;9.940;2022-07-23T03:31:16;2.93;;;1.13;;
54983;SDS011;40884;53.562;9.940;2022-07-23T03:32:16;3.00;;;1.37;;
54983;SDS011;40884;53.562;9.940;2022-07-23T03:33:17;5.10;;;1.40;;
54983;SDS011;40884;53.562;9.940;2022-07-23T03:34:17;2.27;;;1.17;;
54983;SDS011;40884;53.562;9.940;2022-07-23T03:35:17;4.17;;;1.20;;
54983;SDS011;40884;53.562;9.940;2022-07-23T03:36:25;3.30;;;1.23;;
54983;SDS011;40884;53.562;9.940;2022-07-23T03:37:26;2.50;;;1.23;;
54983;SDS011;40884;53.562;9.940;2022-07-23T03:38:26;3.00;;;1.40;;
54983;SDS011;40884;53.562;9.940;2022-07-23T03:39:27;3.10;;;1.13;;
54983;SDS011;40884;53.562;9.940;2022-07-23T03:40:28;2.10;;;1.33;;
54983;SDS011;40884;53.562;9.940;2022-07-23T03:41:28;3.40;;;1.30;;
54983;SDS011;40884;53.562;9.940;2022-07-23T03:42:28;3.17;;;1.40;;
54983;SDS011;40884;53.562;9.940;2022-07-23T03:43:28;2.80;;;1.20;;
54983;SDS011;40884;53.562;9.940;2022-07-23T03:44:29;3.53;;;1.30;;
54983;SDS011;40884;53.562;9.940;2022-07-23T03:45:29;2.30;;;1.30;;
54983;SDS011;40884;53.562;9.940;2022-07-23T03:46:29;5.13;;;1.60;;
54983;SDS011;40884;53.562;9.940;2022-07-23T03:47:29;3.00;;;1.40;;
54983;SDS011;40884;53.562;9.940;2022-07-23T03:48:29;3.80;;;1.40;;
54983;SDS011;40884;53.562;9.940;2022-07-23T03:49:30;1.63;;;1.20;;
54983;SDS011;40884;53.562;9.940;2022-07-23T03:50:30;4.63;;;1.40;;
54983;SDS011;40884;53.562;9.940;2022-07-23T03:51:30;4.00;;;1.50;;
54983;SDS011;40884;53.562;9.940;2022-07-23T03:52:30;3.77;;;1.57;;
54983;SDS011;40884;53.562;9.940;2022-07-23T03:53:30;2.93;;;1.60;;
54983;SDS011;40884;53.562;9.940;2022-07-23T03:54:31;2.77;;;1.40;;
54983;SDS011;40884;53.562;9.940;2022-07-23T03:55:31;4.87;;;1.40;;
54983;SDS011;40884;53.562;9.940;2022-07-23T03:56:31;4.57;;;1.63;;
54983;SDS011;40884;53.562;9.940;2022-07-23T03:57:31;4.10;;;1.40;;
54983;SDS011;40884;53.562;9.940;2022-07-23T03:58:32;3.90;;;1.57;;
54983;SDS011;40884;53.562;9.940;2022-07-23T03:59:32;3.97;;;1.40;;
54983;SDS011;40884;53.562;9.940;2022-07-23T04:00:33;4.00;;;1.60;;
54983;SDS011;40884;53.562;9.940;2022-07-23T04:01:33;3.47;;;1.50;;
54983;SDS011;40884;53.562;9.940;2022-07-23T04:02:33;4.17;;;1.63;;
54983;SDS011;40884;53.562;9.940;2022-07-23T04:03:33;5.07;;;1.57;;
54983;SDS011;40884;53.562;9.940;2022-07-23T04:04:33;3.27;;;1.50;;
54983;SDS011;40884;53.562;9.940;2022-07-23T04:05:34;4.43;;;1.43;;
54983;SDS011;40884;53.562;9.940;2022-07-23T04:06:40;4.40;;;1.57;;
54983;SDS011;40884;53.562;9.940;2022-07-23T04:07:40;3.37;;;1.53;;
54983;SDS011;40884;53.562;9.940;2022-07-23T04:08:40;3.83;;;1.60;;
54983;SDS011;40884;53.562;9.940;2022-07-23T04:09:40;3.50;;;1.50;;
54983;SDS011;40884;53.562;9.940;2022-07-23T04:10:41;4.97;;;1.70;;
54983;SDS011;40884;53.562;9.940;2022-07-23T04:11:42;2.73;;;1.30;;
54983;SDS011;40884;53.562;9.940;2022-07-23T04:12:42;2.83;;;1.40;;
54983;SDS011;40884;53.562;9.940;2022-07-23T04:13:43;5.47;;;1.53;;
54983;SDS011;40884;53.562;9.940;2022-07-23T04:14:43;5.03;;;1.67;;
54983;SDS011;40884;53.562;9.940;2022-07-23T04:15:43;3.43;;;1.50;;
54983;SDS011;40884;53.562;9.940;2022-07-23T04:16:44;4.60;;;1.60;;
54983;SDS011;40884;53.562;9.940;2022-07-23T04:17:44;3.93;;;1.50;;
54983;SDS011;40884;53.562;9.940;2022-07-23T04:18:44;4.10;;;1.40;;
54983;SDS011;40884;53.562;9.940;2022-07-23T04:19:49;3.30;;;1.63;;
54983;SDS011;40884;53.562;9.940;2022-07-23T04:20:55;4.10;;;1.63;;
54983;SDS011;40884;53.562;9.940;2022-07-23T04:21:55;3.20;;;1.63;;
54983;SDS011;40884;53.562;9.940;2022-07-23T04:22:55;2.83;;;1.70;;
54983;SDS011;40884;53.562;9.940;2022-07-23T04:23:56;5.17;;;1.60;;
54983;SDS011;40884;53.562;9.940;2022-07-23T04:24:56;3.70;;;1.43;;
54983;SDS011;40884;53.562;9.940;2022-07-23T04:25:56;4.70;;;1.70;;
54983;SDS011;40884;53.562;9.940;2022-07-23T04:26:56;5.37;;;1.57;;
54983;SDS011;40884;53.562;9.940;2022-07-23T04:27:57;4.23;;;1.50;;
54983;SDS011;40884;53.562;9.940;2022-07-23T04:28:57;4.83;;;1.83;;
54983;SDS011;40884;53.562;9.940;2022-07-23T04:29:57;4.93;;;1.63;;
54983;SDS011;40884;53.562;9.940;2022-07-23T04:30:57;5.70;;;1.73;;
54983;SDS011;40884;53.562;9.940;2022-07-23T04:31:58;4.83;;;1.63;;
54983;SDS011;40884;53.562;9.940;2022-07-23T04:32:58;4.90;;;1.70;;
54983;SDS011;40884;53.562;9.940;2022-07-23T04:34:01;5.63;;;1.70;;
54983;SDS011;40884;53.562;9.940;2022-07-23T04:35:02;5.87;;;1.80;;
54983;SDS011;40884;53.562;9.940;2022-07-23T04:36:02;5.30;;;1.67;;
54983;SDS011;40884;53.562;9.940;2022-07-23T04:37:02;6.40;;;2.10;;
54983;SDS011;40884;53.562;9.940;2022-07-23T04:38:05;5.07;;;2.13;;
54983;SDS011;40884;53.562;9.940;2022-07-23T04:39:05;4.57;;;1.90;;
54983;SDS011;40884;53.562;9.940;2022-07-23T04:40:05;6.00;;;2.10;;
54983;SDS011;40884;53.562;9.940;2022-07-23T04:41:05;5.13;;;1.90;;
54983;SDS011;40884;53.562;9.940;2022-07-23T04:42:06;2.97;;;1.67;;
54983;SDS011;40884;53.562;9.940;2022-07-23T04:43:06;4.60;;;2.10;;
54983;SDS011;40884;53.562;9.940;2022-07-23T04:44:10;4.23;;;2.10;;
54983;SDS011;40884;53.562;9.940;2022-07-23T04:45:10;4.67;;;2.00;;
54983;SDS011;40884;53.562;9.940;2022-07-23T04:46:11;3.70;;;2.00;;
54983;SDS011;40884;53.562;9.940;2022-07-23T04:47:17;4.67;;;1.90;;
54983;SDS011;40884;53.562;9.940;2022-07-23T04:48:19;4.63;;;2.00;;
54983;SDS011;40884;53.562;9.940;2022-07-23T04:49:20;3.60;;;1.90;;
54983;SDS011;40884;53.562;9.940;2022-07-23T04:50:21;4.67;;;1.90;;
54983;SDS011;40884;53.562;9.940;2022-07-23T04:51:21;5.77;;;1.87;;
54983;SDS011;40884;53.562;9.940;2022-07-23T04:52:21;3.80;;;1.83;;
54983;SDS011;40884;53.562;9.940;2022-07-23T04:53:22;3.87;;;2.03;;
54983;SDS011;40884;53.562;9.940;2022-07-23T04:54:25;4.53;;;1.83;;
54983;SDS011;40884;53.562;9.940;2022-07-23T04:55:25;4.37;;;2.00;;
54983;SDS011;40884;53.562;9.940;2022-07-23T04:56:26;3.10;;;2.03;;
54983;SDS011;40884;53.562;9.940;2022-07-23T04:57:26;5.83;;;1.97;;
54983;SDS011;40884;53.562;9.940;2022-07-23T04:58:27;3.67;;;2.00;;
54983;SDS011;40884;53.562;9.940;2022-07-23T04:59:27;2.90;;;2.00;;
54983;SDS011;40884;53.562;9.940;2022-07-23T05:00:32;3.70;;;1.80;;
54983;SDS011;40884;53.562;9.940;2022-07-23T05:01:32;4.00;;;2.07;;
54983;SDS011;40884;53.562;9.940;2022-07-23T05:02:32;4.63;;;1.90;;
54983;SDS011;40884;53.562;9.940;2022-07-23T05:03:33;3.93;;;1.90;;
54983;SDS011;40884;53.562;9.940;2022-07-23T05:04:33;6.07;;;1.80;;
54983;SDS011;40884;53.562;9.940;2022-07-23T05:05:33;1.90;;;1.60;;
54983;SDS011;40884;53.562;9.940;2022-07-23T05:06:43;3.50;;;1.50;;
54983;SDS011;40884;53.562;9.940;2022-07-23T05:07:43;2.53;;;1.30;;
54983;SDS011;40884;53.562;9.940;2022-07-23T05:08:44;3.30;;;1.70;;
54983;SDS011;40884;53.562;9.940;2022-07-23T05:09:45;3.67;;;1.37;;
54983;SDS011;40884;53.562;9.940;2022-07-23T05:10:45;4.10;;;1.43;;
54983;SDS011;40884;53.562;9.940;2022-07-23T05:11:45;4.63;;;1.50;;
54983;SDS011;40884;53.562;9.940;2022-07-23T05:12:45;2.30;;;1.27;;
54983;SDS011;40884;53.562;9.940;2022-07-23T05:13:46;3.23;;;1.53;;
54983;SDS011;40884;53.562;9.940;2022-07-23T05:14:46;2.07;;;1.40;;
54983;SDS011;40884;53.562;9.940;2022-07-23T05:15:46;3.03;;;1.13;;
54983;SDS011;40884;53.562;9.940;2022-07-23T05:16:46;3.20;;;1.23;;
54983;SDS011;40884;53.562;9.940;2022-07-23T05:17:52;2.47;;;1.20;;
54983;SDS011;40884;53.562;9.940;2022-07-23T05:18:52;2.60;;;1.10;;
54983;SDS011;40884;53.562;9.940;2022-07-23T05:19:53;2.30;;;1.10;;
54983;SDS011;40884;53.562;9.940;2022-07-23T05:20:53;1.93;;;1.10;;
54983;SDS011;40884;53.562;9.940;2022-07-23T05:21:56;5.17;;;1.20;;
54983;SDS011;40884;53.562;9.940;2022-07-23T05:22:56;2.37;;;1.27;;
54983;SDS011;40884;53.562;9.940;2022-07-23T05:23:57;2.97;;;0.97;;
54983;SDS011;40884;53.562;9.940;2022-07-23T05:24:57;4.50;;;1.20;;
54983;SDS011;40884;53.562;9.940;2022-07-23T05:25:57;2.57;;;1.10;;
54983;SDS011;40884;53.562;9.940;2022-07-23T05:26:59;2.30;;;1.17;;
54983;SDS011;40884;53.562;9.940;2022-07-23T05:27:59;2.70;;;1.20;;
54983;SDS011;40884;53.562;9.940;2022-07-23T05:29:00;2.57;;;1.33;;
54983;SDS011;40884;53.562;9.940;2022-07-23T05:30:00;2.57;;;0.97;;
54983;SDS011;40884;53.562;9.940;2022-07-23T05:31:00;3.17;;;0.80;;
54983;SDS011;40884;53.562;9.940;2022-07-23T05:32:00;1.77;;;1.27;;
54983;SDS011;40884;53.562;9.940;2022-07-23T05:33:02;2.90;;;1.10;;
54983;SDS011;40884;53.562;9.940;2022-07-23T05:34:03;2.07;;;1.00;;
54983;SDS011;40884;53.562;9.940;2022-07-23T05:35:04;4.23;;;1.00;;
54983;SDS011;40884;53.562;9.940;2022-07-23T05:36:05;1.93;;;0.83;;
54983;SDS011;40884;53.562;9.940;2022-07-23T05:37:06;2.80;;;0.83;;
54983;SDS011;40884;53.562;9.940;2022-07-23T05:38:06;1.33;;;0.83;;
54983;SDS011;40884;53.562;9.940;2022-07-23T05:39:07;2.27;;;0.80;;
54983;SDS011;40884;53.562;9.940;2022-07-23T05:40:10;3.17;;;0.93;;
54983;SDS011;40884;53.562;9.940;2022-07-23T05:41:11;1.93;;;0.70;;
54983;SDS011;40884;53.562;9.940;2022-07-23T05:42:11;1.93;;;0.90;;
54983;SDS011;40884;53.562;9.940;2022-07-23T05:43:12;1.50;;;0.90;;
54983;SDS011;40884;53.562;9.940;2022-07-23T05:44:13;1.30;;;0.90;;
54983;SDS011;40884;53.562;9.940;2022-07-23T05:45:15;2.53;;;0.90;;
54983;SDS011;40884;53.562;9.940;2022-07-23T05:46:19;1.00;;;0.73;;
54983;SDS011;40884;53.562;9.940;2022-07-23T05:47:24;2.30;;;0.80;;
54983;SDS011;40884;53.562;9.940;2022-07-23T05:48:24;2.20;;;0.80;;
54983;SDS011;40884;53.562;9.940;2022-07-23T05:49:36;1.87;;;0.93;;
54983;SDS011;40884;53.562;9.940;2022-07-23T05:51:02;2.23;;;1.00;;
54983;SDS011;40884;53.562;9.940;2022-07-23T05:52:05;1.43;;;0.87;;
54983;SDS011;40884;53.562;9.940;2022-07-23T05:53:24;2.13;;;1.00;;
54983;SDS011;40884;53.562;9.940;2022-07-23T05:54:43;2.40;;;0.90;;
54983;SDS011;40884;53.562;9.940;2022-07-23T05:55:44;2.03;;;0.90;;
54983;SDS011;40884;53.562;9.940;2022-07-23T05:56:44;1.00;;;0.90;;
54983;SDS011;40884;53.562;9.940;2022-07-23T05:57:45;1.13;;;0.90;;
54983;SDS011;40884;53.562;9.940;2022-07-23T05:58:46;3.03;;;1.00;;
54983;SDS011;40884;53.562;9.940;2022-07-23T05:59:47;2.83;;;1.20;;
54983;SDS011;40884;53.562;9.940;2022-07-23T06:00:48;1.57;;;1.10;;
54983;SDS011;40884;53.562;9.940;2022-07-23T06:01:48;2.00;;;1.00;;
54983;SDS011;40884;53.562;9.940;2022-07-23T06:02:49;1.87;;;1.17;;
54983;SDS011;40884;53.562;9.940;2022-07-23T06:03:50;3.37;;;1.27;;
54983;SDS011;40884;53.562;9.940;2022-07-23T06:04:51;1.97;;;0.90;;
54983;SDS011;40884;53.562;9.940;2022-07-23T06:05:59;3.37;;;1.03;;
54983;SDS011;40884;53.562;9.940;2022-07-23T06:06:59;3.20;;;1.23;;
54983;SDS011;40884;53.562;9.940;2022-07-23T06:08:00;1.73;;;1.00;;
54983;SDS011;40884;53.562;9.940;2022-07-23T06:09:01;5.83;;;1.30;;